Accueil
METAR-TAF:

METAR-TAF

Aéroports :

Aéroport de Shoreham

Brighton, Angleterre

latitude: 50-50N, longitude: 000-17W, altitude: 2 m

Observation

Le bulletin a été fait il y a 43 minutes, à 17:20 UTC
Vent 6 kt de nord
Température 8°C
Humidité 87%
Pression 1020 hPa
Visibilité 10 km ou plus
Nuages fragmentés à une hauteur de 1700 ft

METAR: EGKA 261720Z 36006KT 9999 BKN017 08/06 Q1020

Heure: 18:03 (18:03 UTC)

Prévision

Le bulletin a été fait il y a 1 heure et 4 minutes, à 16:59 UTC
Prévision valable du 26 à 18 UTC au 26 à 20 UTC
Vent 8 kt de nord
Visibilité 10 km ou plus
Nuages épars à une hauteur de 1400 ft
Temporairement
du 26 à 18 UTC au 26 à 20 UTC
Visibilité: 8000 m
Nuages fragmentés à une hauteur de 1200 ft
pluie faible
Probabilité 30% :
Temporairement
du 26 à 18 UTC au 26 à 20 UTC
Nuages fragmentés à une hauteur de 800 ft

TAF: EGKA 261659Z 2618/2620 35008KT 9999 SCT014 TEMPO 2618/2620 8000 -RA BKN012 PROB30 TEMPO 2618/2620 BKN008

Observations et prévisions météorologiques de plus de 4000 aéroports (messages METAR et TAF).

Les stations disponibles sont représentées par des disques jaunes et rouges sur la carte.

Passer la souris dessus pour voir le nom de la station.

Cliquer dessus pour voir les observations et prévisions météorologiques.

Pour changer de carte: cliquez sur les boutons verts avec une croix noire pour zoomer, sur le bouton vert avec un tiret pour effectuer un zoom arrière, ou sur les flèches vertes pour les cartes adjacentes.


METAR-TAF: